Rembert, South Carolina
Current Conditions -  °F | °C
As of 10:58 AM on Saturday 25 Oct 2014 (Local Time) from KSSC Reporting Station
Clear Clear  
Wind Chill: 18°   Ceiling: Unl
Heat Index: 18°   Visibility: 10mi
Dew Point:   Wind: 5mph
Humidity: 46%   Direction: 340°NNW
Pressure: 30.03"   Gusts: NA
Location:  34.1°N, 80.53°W
Report Text: KSSC 251458Z AUTO 34004KT 10SM CLR 18/06 A3003 RMK AO2 SLP170 T01780061 50003 $
Loading
Personal Weather Stations






























Interactive Weather Map
Tropical Storm Tracking
New forecast layout! Learn more

10-Day Weather Forecast

Advertisements
Track Severe Weather on mobile